sensor_id;sensor_type;location;lat;lon;timestamp;temperature;humidity
27940;DHT22;15275;51.716;14.324;2022-10-31T00:00:21;14.50;80.50
27940;DHT22;15275;51.716;14.324;2022-10-31T00:02:47;14.60;80.60
27940;DHT22;15275;51.716;14.324;2022-10-31T00:05:13;14.60;80.70
27940;DHT22;15275;51.716;14.324;2022-10-31T00:07:39;14.70;80.80
27940;DHT22;15275;51.716;14.324;2022-10-31T00:10:05;14.80;80.80
27940;DHT22;15275;51.716;14.324;2022-10-31T00:12:32;14.80;80.90
27940;DHT22;15275;51.716;14.324;2022-10-31T00:14:58;14.90;80.80
27940;DHT22;15275;51.716;14.324;2022-10-31T00:17:23;14.90;80.80
27940;DHT22;15275;51.716;14.324;2022-10-31T00:19:49;15.00;80.80
27940;DHT22;15275;51.716;14.324;2022-10-31T00:22:15;15.00;80.80
27940;DHT22;15275;51.716;14.324;2022-10-31T00:24:41;15.10;80.60
27940;DHT22;15275;51.716;14.324;2022-10-31T00:27:07;15.10;80.60
27940;DHT22;15275;51.716;14.324;2022-10-31T00:29:32;15.20;80.60
27940;DHT22;15275;51.716;14.324;2022-10-31T00:31:58;15.20;80.50
27940;DHT22;15275;51.716;14.324;2022-10-31T00:34:24;15.20;80.50
27940;DHT22;15275;51.716;14.324;2022-10-31T00:36:50;15.30;80.40
27940;DHT22;15275;51.716;14.324;2022-10-31T00:39:16;15.40;80.30
27940;DHT22;15275;51.716;14.324;2022-10-31T00:41:41;15.40;80.30
27940;DHT22;15275;51.716;14.324;2022-10-31T00:44:07;15.40;80.30
27940;DHT22;15275;51.716;14.324;2022-10-31T00:46:33;15.50;80.20
27940;DHT22;15275;51.716;14.324;2022-10-31T00:48:59;15.50;80.10
27940;DHT22;15275;51.716;14.324;2022-10-31T00:51:25;15.60;80.00
27940;DHT22;15275;51.716;14.324;2022-10-31T00:53:50;15.60;79.70
27940;DHT22;15275;51.716;14.324;2022-10-31T00:56:16;15.70;79.60
27940;DHT22;15275;51.716;14.324;2022-10-31T00:58:42;15.70;79.50
27940;DHT22;15275;51.716;14.324;2022-10-31T01:01:08;15.70;79.40
27940;DHT22;15275;51.716;14.324;2022-10-31T01:03:33;15.70;79.40
27940;DHT22;15275;51.716;14.324;2022-10-31T01:08:29;15.80;79.20
27940;DHT22;15275;51.716;14.324;2022-10-31T01:11:07;15.80;79.10
27940;DHT22;15275;51.716;14.324;2022-10-31T01:13:38;15.80;78.90
27940;DHT22;15275;51.716;14.324;2022-10-31T01:16:05;15.90;78.80
27940;DHT22;15275;51.716;14.324;2022-10-31T01:18:33;15.90;78.70
27940;DHT22;15275;51.716;14.324;2022-10-31T01:23:30;15.90;78.50
27940;DHT22;15275;51.716;14.324;2022-10-31T01:26:06;15.90;78.40
27940;DHT22;15275;51.716;14.324;2022-10-31T01:28:36;15.90;78.30
27940;DHT22;15275;51.716;14.324;2022-10-31T01:31:06;15.90;78.20
27940;DHT22;15275;51.716;14.324;2022-10-31T01:33:33;15.90;78.20
27940;DHT22;15275;51.716;14.324;2022-10-31T01:35:59;15.90;78.20
27940;DHT22;15275;51.716;14.324;2022-10-31T01:38:25;15.90;78.20
27940;DHT22;15275;51.716;14.324;2022-10-31T01:40:51;15.90;78.10
27940;DHT22;15275;51.716;14.324;2022-10-31T01:43:18;15.90;78.10
27940;DHT22;15275;51.716;14.324;2022-10-31T01:45:49;15.90;78.00
27940;DHT22;15275;51.716;14.324;2022-10-31T01:48:19;15.90;78.00
27940;DHT22;15275;51.716;14.324;2022-10-31T01:50:47;15.90;77.90
27940;DHT22;15275;51.716;14.324;2022-10-31T01:53:15;15.90;77.80
27940;DHT22;15275;51.716;14.324;2022-10-31T01:55:43;15.90;77.70
27940;DHT22;15275;51.716;14.324;2022-10-31T01:58:19;15.90;77.60
27940;DHT22;15275;51.716;14.324;2022-10-31T02:00:48;15.80;77.50
27940;DHT22;15275;51.716;14.324;2022-10-31T02:03:16;15.80;77.50
27940;DHT22;15275;51.716;14.324;2022-10-31T02:05:43;15.80;77.40
27940;DHT22;15275;51.716;14.324;2022-10-31T02:08:28;15.80;77.40
27940;DHT22;15275;51.716;14.324;2022-10-31T02:11:00;15.70;77.40
27940;DHT22;15275;51.716;14.324;2022-10-31T02:13:28;15.70;77.30
27940;DHT22;15275;51.716;14.324;2022-10-31T02:15:57;15.70;77.30
27940;DHT22;15275;51.716;14.324;2022-10-31T02:18:25;15.70;77.30
27940;DHT22;15275;51.716;14.324;2022-10-31T02:27:13;15.60;77.20
27940;DHT22;15275;51.716;14.324;2022-10-31T02:30:30;15.50;77.20
27940;DHT22;15275;51.716;14.324;2022-10-31T02:33:15;15.50;77.20
27940;DHT22;15275;51.716;14.324;2022-10-31T02:36:34;15.50;77.30
27940;DHT22;15275;51.716;14.324;2022-10-31T02:42:09;15.40;77.30
27940;DHT22;15275;51.716;14.324;2022-10-31T02:45:00;15.40;77.40
27940;DHT22;15275;51.716;14.324;2022-10-31T02:47:41;15.40;77.50
27940;DHT22;15275;51.716;14.324;2022-10-31T02:50:15;15.30;77.60
27940;DHT22;15275;51.716;14.324;2022-10-31T02:52:43;15.40;77.70
27940;DHT22;15275;51.716;14.324;2022-10-31T02:58:02;15.40;77.80
27940;DHT22;15275;51.716;14.324;2022-10-31T03:00:40;15.40;77.60
27940;DHT22;15275;51.716;14.324;2022-10-31T03:06:39;15.40;77.60
27940;DHT22;15275;51.716;14.324;2022-10-31T03:15:03;15.40;77.40
27940;DHT22;15275;51.716;14.324;2022-10-31T03:18:49;15.40;77.20
27940;DHT22;15275;51.716;14.324;2022-10-31T03:23:48;15.30;77.20
27940;DHT22;15275;51.716;14.324;2022-10-31T03:26:16;15.30;77.20
27940;DHT22;15275;51.716;14.324;2022-10-31T03:31:18;15.20;77.30
27940;DHT22;15275;51.716;14.324;2022-10-31T03:33:46;15.20;77.30
27940;DHT22;15275;51.716;14.324;2022-10-31T03:36:14;15.20;77.30
27940;DHT22;15275;51.716;14.324;2022-10-31T03:38:42;15.20;77.30
27940;DHT22;15275;51.716;14.324;2022-10-31T03:41:16;15.10;77.30
27940;DHT22;15275;51.716;14.324;2022-10-31T03:43:52;15.10;77.40
27940;DHT22;15275;51.716;14.324;2022-10-31T03:46:23;15.10;77.40
27940;DHT22;15275;51.716;14.324;2022-10-31T03:48:49;15.10;77.40
27940;DHT22;15275;51.716;14.324;2022-10-31T03:51:25;15.10;77.50
27940;DHT22;15275;51.716;14.324;2022-10-31T03:54:02;15.10;77.60
27940;DHT22;15275;51.716;14.324;2022-10-31T03:56:57;15.10;77.60
27940;DHT22;15275;51.716;14.324;2022-10-31T03:59:40;15.10;77.60
27940;DHT22;15275;51.716;14.324;2022-10-31T04:02:12;15.10;77.50
27940;DHT22;15275;51.716;14.324;2022-10-31T04:04:40;15.10;77.50
27940;DHT22;15275;51.716;14.324;2022-10-31T04:07:08;15.10;77.50
27940;DHT22;15275;51.716;14.324;2022-10-31T04:09:36;15.10;77.40
27940;DHT22;15275;51.716;14.324;2022-10-31T04:12:05;15.10;77.40
27940;DHT22;15275;51.716;14.324;2022-10-31T04:14:35;15.10;77.40
27940;DHT22;15275;51.716;14.324;2022-10-31T04:17:07;15.10;77.40
27940;DHT22;15275;51.716;14.324;2022-10-31T04:19:35;15.10;77.50
27940;DHT22;15275;51.716;14.324;2022-10-31T04:22:01;15.10;77.50
27940;DHT22;15275;51.716;14.324;2022-10-31T04:24:27;15.10;77.60
27940;DHT22;15275;51.716;14.324;2022-10-31T04:26:53;15.10;77.80
27940;DHT22;15275;51.716;14.324;2022-10-31T04:29:18;15.10;77.80
27940;DHT22;15275;51.716;14.324;2022-10-31T04:31:44;15.10;77.80
27940;DHT22;15275;51.716;14.324;2022-10-31T04:34:10;15.20;77.80
27940;DHT22;15275;51.716;14.324;2022-10-31T04:36:36;15.20;77.80
27940;DHT22;15275;51.716;14.324;2022-10-31T04:39:02;15.20;77.80
27940;DHT22;15275;51.716;14.324;2022-10-31T04:41:28;15.20;77.80
27940;DHT22;15275;51.716;14.324;2022-10-31T04:43:54;15.30;77.80
27940;DHT22;15275;51.716;14.324;2022-10-31T04:46:20;15.30;77.80
27940;DHT22;15275;51.716;14.324;2022-10-31T04:48:46;15.30;77.70
27940;DHT22;15275;51.716;14.324;2022-10-31T04:51:12;15.40;77.60
27940;DHT22;15275;51.716;14.324;2022-10-31T04:53:38;15.40;77.50
27940;DHT22;15275;51.716;14.324;2022-10-31T04:56:04;15.40;77.40
27940;DHT22;15275;51.716;14.324;2022-10-31T04:58:30;15.40;77.30
27940;DHT22;15275;51.716;14.324;2022-10-31T05:00:56;15.40;77.30
27940;DHT22;15275;51.716;14.324;2022-10-31T05:03:23;15.40;77.20
27940;DHT22;15275;51.716;14.324;2022-10-31T05:05:49;15.50;77.10
27940;DHT22;15275;51.716;14.324;2022-10-31T05:08:15;15.50;77.10
27940;DHT22;15275;51.716;14.324;2022-10-31T05:10:41;15.50;77.00
27940;DHT22;15275;51.716;14.324;2022-10-31T05:13:07;15.50;77.00
27940;DHT22;15275;51.716;14.324;2022-10-31T05:15:33;15.50;77.00
27940;DHT22;15275;51.716;14.324;2022-10-31T05:17:59;15.50;77.00
27940;DHT22;15275;51.716;14.324;2022-10-31T05:20:28;15.40;77.00
27940;DHT22;15275;51.716;14.324;2022-10-31T05:22:56;15.50;77.00
27940;DHT22;15275;51.716;14.324;2022-10-31T05:25:25;15.40;77.00
27940;DHT22;15275;51.716;14.324;2022-10-31T05:27:53;15.40;76.90
27940;DHT22;15275;51.716;14.324;2022-10-31T05:30:23;15.40;76.90
27940;DHT22;15275;51.716;14.324;2022-10-31T05:32:51;15.40;76.90
27940;DHT22;15275;51.716;14.324;2022-10-31T05:35:22;15.40;76.90
27940;DHT22;15275;51.716;14.324;2022-10-31T05:37:52;15.40;76.90
27940;DHT22;15275;51.716;14.324;2022-10-31T05:40:19;15.40;76.80
27940;DHT22;15275;51.716;14.324;2022-10-31T05:42:45;15.40;76.90
27940;DHT22;15275;51.716;14.324;2022-10-31T05:45:14;15.40;76.90
27940;DHT22;15275;51.716;14.324;2022-10-31T05:47:41;15.40;77.00
27940;DHT22;15275;51.716;14.324;2022-10-31T05:50:09;15.40;77.10
27940;DHT22;15275;51.716;14.324;2022-10-31T05:52:35;15.40;77.10
27940;DHT22;15275;51.716;14.324;2022-10-31T05:55:01;15.40;77.10
27940;DHT22;15275;51.716;14.324;2022-10-31T05:57:28;15.40;77.10
27940;DHT22;15275;51.716;14.324;2022-10-31T05:59:54;15.40;77.10
27940;DHT22;15275;51.716;14.324;2022-10-31T06:02:20;15.40;77.00
27940;DHT22;15275;51.716;14.324;2022-10-31T06:04:47;15.40;77.00
27940;DHT22;15275;51.716;14.324;2022-10-31T06:07:13;15.40;77.00
27940;DHT22;15275;51.716;14.324;2022-10-31T06:09:39;15.40;77.00
27940;DHT22;15275;51.716;14.324;2022-10-31T06:12:05;15.40;77.00
27940;DHT22;15275;51.716;14.324;2022-10-31T06:14:31;15.40;77.00
27940;DHT22;15275;51.716;14.324;2022-10-31T06:16:57;15.40;77.00
27940;DHT22;15275;51.716;14.324;2022-10-31T06:19:23;15.40;77.00
27940;DHT22;15275;51.716;14.324;2022-10-31T06:21:49;15.40;77.00
27940;DHT22;15275;51.716;14.324;2022-10-31T06:24:15;15.40;77.10
27940;DHT22;15275;51.716;14.324;2022-10-31T06:26:41;15.40;77.10
27940;DHT22;15275;51.716;14.324;2022-10-31T06:29:07;15.40;77.10
27940;DHT22;15275;51.716;14.324;2022-10-31T06:31:32;15.40;77.20
27940;DHT22;15275;51.716;14.324;2022-10-31T06:33:58;15.40;77.20
27940;DHT22;15275;51.716;14.324;2022-10-31T06:36:24;15.40;77.20
27940;DHT22;15275;51.716;14.324;2022-10-31T06:38:50;15.50;77.30
27940;DHT22;15275;51.716;14.324;2022-10-31T06:41:16;15.50;77.30
27940;DHT22;15275;51.716;14.324;2022-10-31T06:43:42;15.50;77.30
27940;DHT22;15275;51.716;14.324;2022-10-31T06:46:08;15.50;77.40
27940;DHT22;15275;51.716;14.324;2022-10-31T06:48:34;15.50;77.50
27940;DHT22;15275;51.716;14.324;2022-10-31T06:51:01;15.60;77.60
27940;DHT22;15275;51.716;14.324;2022-10-31T06:53:28;15.60;77.60
27940;DHT22;15275;51.716;14.324;2022-10-31T06:55:58;15.70;77.60
27940;DHT22;15275;51.716;14.324;2022-10-31T06:58:24;15.70;77.50
27940;DHT22;15275;51.716;14.324;2022-10-31T07:00:50;15.70;77.50
27940;DHT22;15275;51.716;14.324;2022-10-31T07:03:16;15.80;77.60
27940;DHT22;15275;51.716;14.324;2022-10-31T07:05:42;15.80;77.50
27940;DHT22;15275;51.716;14.324;2022-10-31T07:08:11;15.80;77.50
27940;DHT22;15275;51.716;14.324;2022-10-31T07:10:39;15.90;77.60
27940;DHT22;15275;51.716;14.324;2022-10-31T07:13:10;16.00;77.60
27940;DHT22;15275;51.716;14.324;2022-10-31T07:15:39;16.00;77.60
27940;DHT22;15275;51.716;14.324;2022-10-31T07:18:08;16.00;77.50
27940;DHT22;15275;51.716;14.324;2022-10-31T07:20:35;16.10;77.40
27940;DHT22;15275;51.716;14.324;2022-10-31T07:23:01;16.10;77.40
27940;DHT22;15275;51.716;14.324;2022-10-31T07:25:27;16.20;77.40
27940;DHT22;15275;51.716;14.324;2022-10-31T07:27:53;16.20;77.40
27940;DHT22;15275;51.716;14.324;2022-10-31T07:30:19;16.30;77.30
27940;DHT22;15275;51.716;14.324;2022-10-31T07:32:47;16.30;77.20
27940;DHT22;15275;51.716;14.324;2022-10-31T07:35:17;16.40;77.20
27940;DHT22;15275;51.716;14.324;2022-10-31T07:37:44;16.40;77.20
27940;DHT22;15275;51.716;14.324;2022-10-31T07:40:11;16.50;77.20
27940;DHT22;15275;51.716;14.324;2022-10-31T07:42:39;16.60;77.20
27940;DHT22;15275;51.716;14.324;2022-10-31T07:45:08;16.60;77.20
27940;DHT22;15275;51.716;14.324;2022-10-31T07:47:42;16.70;77.20
27940;DHT22;15275;51.716;14.324;2022-10-31T07:50:15;16.70;77.00
27940;DHT22;15275;51.716;14.324;2022-10-31T07:52:42;16.80;77.00
27940;DHT22;15275;51.716;14.324;2022-10-31T07:55:09;16.90;77.00
27940;DHT22;15275;51.716;14.324;2022-10-31T07:57:35;16.90;76.90
27940;DHT22;15275;51.716;14.324;2022-10-31T08:00:09;17.00;76.90
27940;DHT22;15275;51.716;14.324;2022-10-31T08:02:35;17.10;76.80
27940;DHT22;15275;51.716;14.324;2022-10-31T08:05:02;17.20;76.80
27940;DHT22;15275;51.716;14.324;2022-10-31T08:07:28;17.20;76.60
27940;DHT22;15275;51.716;14.324;2022-10-31T08:09:55;17.30;76.60
27940;DHT22;15275;51.716;14.324;2022-10-31T08:12:21;17.40;76.50
27940;DHT22;15275;51.716;14.324;2022-10-31T08:14:47;17.40;76.50
27940;DHT22;15275;51.716;14.324;2022-10-31T08:17:13;17.50;76.40
27940;DHT22;15275;51.716;14.324;2022-10-31T08:19:39;17.50;76.20
27940;DHT22;15275;51.716;14.324;2022-10-31T08:22:05;17.60;76.20
27940;DHT22;15275;51.716;14.324;2022-10-31T08:24:30;17.70;76.20
27940;DHT22;15275;51.716;14.324;2022-10-31T08:26:56;17.70;76.10
27940;DHT22;15275;51.716;14.324;2022-10-31T08:29:22;17.80;76.00
27940;DHT22;15275;51.716;14.324;2022-10-31T08:31:48;17.80;76.00
27940;DHT22;15275;51.716;14.324;2022-10-31T08:34:14;17.90;75.90
27940;DHT22;15275;51.716;14.324;2022-10-31T08:36:40;18.00;75.90
27940;DHT22;15275;51.716;14.324;2022-10-31T08:39:07;18.10;75.90
27940;DHT22;15275;51.716;14.324;2022-10-31T08:41:33;18.10;75.80
27940;DHT22;15275;51.716;14.324;2022-10-31T08:44:00;18.20;75.90
27940;DHT22;15275;51.716;14.324;2022-10-31T08:46:26;18.20;75.80
27940;DHT22;15275;51.716;14.324;2022-10-31T08:48:52;18.30;75.80
27940;DHT22;15275;51.716;14.324;2022-10-31T08:51:18;18.40;75.90
27940;DHT22;15275;51.716;14.324;2022-10-31T08:53:44;18.40;75.70
27940;DHT22;15275;51.716;14.324;2022-10-31T08:56:10;18.50;75.60
27940;DHT22;15275;51.716;14.324;2022-10-31T08:58:35;18.60;75.70
27940;DHT22;15275;51.716;14.324;2022-10-31T09:01:02;18.60;75.70
27940;DHT22;15275;51.716;14.324;2022-10-31T09:03:29;18.70;75.70
27940;DHT22;15275;51.716;14.324;2022-10-31T09:06:01;18.80;75.70
27940;DHT22;15275;51.716;14.324;2022-10-31T09:08:32;18.80;75.60
27940;DHT22;15275;51.716;14.324;2022-10-31T09:10:58;18.90;75.60
27940;DHT22;15275;51.716;14.324;2022-10-31T09:13:25;19.00;75.60
27940;DHT22;15275;51.716;14.324;2022-10-31T09:15:51;19.00;75.50
27940;DHT22;15275;51.716;14.324;2022-10-31T09:18:19;19.10;75.40
27940;DHT22;15275;51.716;14.324;2022-10-31T09:20:48;19.20;75.30
27940;DHT22;15275;51.716;14.324;2022-10-31T09:23:16;19.30;75.20
27940;DHT22;15275;51.716;14.324;2022-10-31T09:25:47;19.30;75.10
27940;DHT22;15275;51.716;14.324;2022-10-31T09:28:15;19.40;75.10
27940;DHT22;15275;51.716;14.324;2022-10-31T09:30:49;19.50;75.00
27940;DHT22;15275;51.716;14.324;2022-10-31T09:33:17;19.50;75.00
27940;DHT22;15275;51.716;14.324;2022-10-31T09:35:43;19.60;74.80
27940;DHT22;15275;51.716;14.324;2022-10-31T09:40:41;19.70;74.70
27940;DHT22;15275;51.716;14.324;2022-10-31T09:51:36;20.00;74.00
27940;DHT22;15275;51.716;14.324;2022-10-31T09:57:05;20.10;73.80
27940;DHT22;15275;51.716;14.324;2022-10-31T09:59:34;20.10;74.20
27940;DHT22;15275;51.716;14.324;2022-10-31T10:05:00;20.20;73.70
27940;DHT22;15275;51.716;14.324;2022-10-31T10:07:32;20.30;74.00
27940;DHT22;15275;51.716;14.324;2022-10-31T10:13:25;20.50;73.00
27940;DHT22;15275;51.716;14.324;2022-10-31T10:16:16;20.50;73.60
27940;DHT22;15275;51.716;14.324;2022-10-31T10:21:42;20.70;73.50
27940;DHT22;15275;51.716;14.324;2022-10-31T10:24:39;20.70;73.40
27940;DHT22;15275;51.716;14.324;2022-10-31T10:32:30;20.90;72.40
27940;DHT22;15275;51.716;14.324;2022-10-31T10:35:07;21.00;72.90
27940;DHT22;15275;51.716;14.324;2022-10-31T10:37:44;21.00;72.50
27940;DHT22;15275;51.716;14.324;2022-10-31T10:40:21;21.10;72.50
27940;DHT22;15275;51.716;14.324;2022-10-31T10:49:06;21.30;72.50
27940;DHT22;15275;51.716;14.324;2022-10-31T10:59:49;21.70;72.90
27940;DHT22;15275;51.716;14.324;2022-10-31T11:02:18;21.80;72.90
27940;DHT22;15275;51.716;14.324;2022-10-31T11:04:57;21.90;72.90
27940;DHT22;15275;51.716;14.324;2022-10-31T11:07:23;21.90;73.00
27940;DHT22;15275;51.716;14.324;2022-10-31T11:09:49;22.00;73.00
27940;DHT22;15275;51.716;14.324;2022-10-31T11:12:26;22.10;73.00
27940;DHT22;15275;51.716;14.324;2022-10-31T11:14:57;22.20;72.90
27940;DHT22;15275;51.716;14.324;2022-10-31T11:17:30;22.30;72.70
27940;DHT22;15275;51.716;14.324;2022-10-31T11:20:01;22.30;72.90
27940;DHT22;15275;51.716;14.324;2022-10-31T11:22:27;22.40;72.90
27940;DHT22;15275;51.716;14.324;2022-10-31T11:24:53;22.50;72.80
27940;DHT22;15275;51.716;14.324;2022-10-31T11:27:22;22.50;72.80
27940;DHT22;15275;51.716;14.324;2022-10-31T11:29:49;22.60;72.80
27940;DHT22;15275;51.716;14.324;2022-10-31T11:32:25;22.60;72.80
27940;DHT22;15275;51.716;14.324;2022-10-31T11:34:53;22.70;72.70
27940;DHT22;15275;51.716;14.324;2022-10-31T11:37:21;22.70;72.70
27940;DHT22;15275;51.716;14.324;2022-10-31T11:39:53;22.80;72.60
27940;DHT22;15275;51.716;14.324;2022-10-31T11:42:24;22.80;72.60
27940;DHT22;15275;51.716;14.324;2022-10-31T11:44:51;22.90;72.60
27940;DHT22;15275;51.716;14.324;2022-10-31T11:47:20;22.90;72.70
27940;DHT22;15275;51.716;14.324;2022-10-31T11:49:50;23.00;72.70
27940;DHT22;15275;51.716;14.324;2022-10-31T11:54:58;23.10;72.60
27940;DHT22;15275;51.716;14.324;2022-10-31T11:59:52;23.20;72.50
27940;DHT22;15275;51.716;14.324;2022-10-31T12:02:20;23.20;72.40
27940;DHT22;15275;51.716;14.324;2022-10-31T12:04:47;23.30;72.40
27940;DHT22;15275;51.716;14.324;2022-10-31T12:07:34;23.30;72.20
27940;DHT22;15275;51.716;14.324;2022-10-31T12:10:00;23.30;72.10
27940;DHT22;15275;51.716;14.324;2022-10-31T12:18:06;23.40;71.80
27940;DHT22;15275;51.716;14.324;2022-10-31T12:45:53;23.60;71.70
27940;DHT22;15275;51.716;14.324;2022-10-31T12:59:53;23.70;71.40
27940;DHT22;15275;51.716;14.324;2022-10-31T13:05:37;23.80;71.30
27940;DHT22;15275;51.716;14.324;2022-10-31T13:08:08;23.80;71.20
27940;DHT22;15275;51.716;14.324;2022-10-31T13:10:39;23.80;71.30
27940;DHT22;15275;51.716;14.324;2022-10-31T13:13:33;23.80;71.30
27940;DHT22;15275;51.716;14.324;2022-10-31T13:16:11;23.80;71.20
27940;DHT22;15275;51.716;14.324;2022-10-31T13:18:47;23.80;71.20
27940;DHT22;15275;51.716;14.324;2022-10-31T13:21:27;23.80;71.10
27940;DHT22;15275;51.716;14.324;2022-10-31T13:23:58;23.80;71.10
27940;DHT22;15275;51.716;14.324;2022-10-31T13:29:18;23.80;71.10
27940;DHT22;15275;51.716;14.324;2022-10-31T13:31:54;23.80;71.10
27940;DHT22;15275;51.716;14.324;2022-10-31T13:34:33;23.80;71.10
27940;DHT22;15275;51.716;14.324;2022-10-31T13:39:34;23.80;71.10
27940;DHT22;15275;51.716;14.324;2022-10-31T13:42:10;23.80;71.10
27940;DHT22;15275;51.716;14.324;2022-10-31T13:44:41;23.70;71.20
27940;DHT22;15275;51.716;14.324;2022-10-31T13:47:23;23.70;71.10
27940;DHT22;15275;51.716;14.324;2022-10-31T13:56:02;23.70;71.00
27940;DHT22;15275;51.716;14.324;2022-10-31T13:58:34;23.70;70.90
27940;DHT22;15275;51.716;14.324;2022-10-31T14:03:39;23.60;70.60
27940;DHT22;15275;51.716;14.324;2022-10-31T14:06:07;23.60;70.80
27940;DHT22;15275;51.716;14.324;2022-10-31T14:08:34;23.50;70.90
27940;DHT22;15275;51.716;14.324;2022-10-31T14:11:01;23.50;70.90
27940;DHT22;15275;51.716;14.324;2022-10-31T14:13:29;23.50;70.90
27940;DHT22;15275;51.716;14.324;2022-10-31T14:18:29;23.50;70.80
27940;DHT22;15275;51.716;14.324;2022-10-31T14:20:56;23.50;70.90
27940;DHT22;15275;51.716;14.324;2022-10-31T14:23:36;23.40;70.90
27940;DHT22;15275;51.716;14.324;2022-10-31T14:28:53;23.30;70.80
27940;DHT22;15275;51.716;14.324;2022-10-31T14:47:15;23.00;70.80
27940;DHT22;15275;51.716;14.324;2022-10-31T14:52:21;22.80;70.70
27940;DHT22;15275;51.716;14.324;2022-10-31T14:54:49;22.70;70.70
27940;DHT22;15275;51.716;14.324;2022-10-31T14:57:31;22.70;70.70
27940;DHT22;15275;51.716;14.324;2022-10-31T15:00:00;22.60;70.70
27940;DHT22;15275;51.716;14.324;2022-10-31T15:02:31;22.50;70.70
27940;DHT22;15275;51.716;14.324;2022-10-31T15:05:05;22.50;70.70
27940;DHT22;15275;51.716;14.324;2022-10-31T15:07:33;22.40;70.70
27940;DHT22;15275;51.716;14.324;2022-10-31T15:10:00;22.30;70.80
27940;DHT22;15275;51.716;14.324;2022-10-31T15:12:32;22.20;70.80
27940;DHT22;15275;51.716;14.324;2022-10-31T15:15:12;22.10;70.80
27940;DHT22;15275;51.716;14.324;2022-10-31T15:17:44;22.00;70.80
27940;DHT22;15275;51.716;14.324;2022-10-31T15:20:21;21.90;70.80
27940;DHT22;15275;51.716;14.324;2022-10-31T15:22:49;21.80;70.80
27940;DHT22;15275;51.716;14.324;2022-10-31T15:25:19;21.70;70.80
27940;DHT22;15275;51.716;14.324;2022-10-31T15:27:47;21.60;71.00
27940;DHT22;15275;51.716;14.324;2022-10-31T15:30:16;21.50;71.00
27940;DHT22;15275;51.716;14.324;2022-10-31T15:32:46;21.40;71.00
27940;DHT22;15275;51.716;14.324;2022-10-31T15:35:23;21.30;71.00
27940;DHT22;15275;51.716;14.324;2022-10-31T15:37:58;21.20;71.00
27940;DHT22;15275;51.716;14.324;2022-10-31T15:40:26;21.10;71.10
27940;DHT22;15275;51.716;14.324;2022-10-31T15:43:00;21.00;71.10
27940;DHT22;15275;51.716;14.324;2022-10-31T15:45:28;20.90;71.20
27940;DHT22;15275;51.716;14.324;2022-10-31T15:48:13;20.80;71.20
27940;DHT22;15275;51.716;14.324;2022-10-31T15:50:46;20.60;71.30
27940;DHT22;15275;51.716;14.324;2022-10-31T15:55:51;20.40;71.40
27940;DHT22;15275;51.716;14.324;2022-10-31T15:58:22;20.30;71.40
27940;DHT22;15275;51.716;14.324;2022-10-31T16:01:02;20.20;71.60
27940;DHT22;15275;51.716;14.324;2022-10-31T16:03:29;20.10;71.70
27940;DHT22;15275;51.716;14.324;2022-10-31T16:05:57;20.00;71.70
27940;DHT22;15275;51.716;14.324;2022-10-31T16:13:26;19.70;71.90
27940;DHT22;15275;51.716;14.324;2022-10-31T16:15:57;19.60;71.90
27940;DHT22;15275;51.716;14.324;2022-10-31T16:18:25;19.50;72.00
27940;DHT22;15275;51.716;14.324;2022-10-31T16:20:52;19.40;72.10
27940;DHT22;15275;51.716;14.324;2022-10-31T16:23:20;19.40;72.20
27940;DHT22;15275;51.716;14.324;2022-10-31T16:25:48;19.30;72.20
27940;DHT22;15275;51.716;14.324;2022-10-31T16:28:16;19.20;72.30
27940;DHT22;15275;51.716;14.324;2022-10-31T16:30:43;19.10;72.40
27940;DHT22;15275;51.716;14.324;2022-10-31T16:35:56;18.90;72.50
27940;DHT22;15275;51.716;14.324;2022-10-31T16:38:23;18.90;72.60
27940;DHT22;15275;51.716;14.324;2022-10-31T16:40:49;18.80;72.60
27940;DHT22;15275;51.716;14.324;2022-10-31T16:43:16;18.70;72.70
27940;DHT22;15275;51.716;14.324;2022-10-31T16:45:44;18.60;72.80
27940;DHT22;15275;51.716;14.324;2022-10-31T16:48:12;18.60;72.90
27940;DHT22;15275;51.716;14.324;2022-10-31T16:50:41;18.50;73.00
27940;DHT22;15275;51.716;14.324;2022-10-31T16:53:08;18.40;73.10
27940;DHT22;15275;51.716;14.324;2022-10-31T16:55:35;18.40;73.20
27940;DHT22;15275;51.716;14.324;2022-10-31T16:58:21;18.30;73.40
27940;DHT22;15275;51.716;14.324;2022-10-31T17:00:49;18.30;73.40
27940;DHT22;15275;51.716;14.324;2022-10-31T17:03:15;18.20;73.50
27940;DHT22;15275;51.716;14.324;2022-10-31T17:05:41;18.20;73.50
27940;DHT22;15275;51.716;14.324;2022-10-31T17:08:07;18.10;73.60
27940;DHT22;15275;51.716;14.324;2022-10-31T17:10:33;18.10;73.60
27940;DHT22;15275;51.716;14.324;2022-10-31T17:13:00;18.00;73.60
27940;DHT22;15275;51.716;14.324;2022-10-31T17:15:30;18.00;73.60
27940;DHT22;15275;51.716;14.324;2022-10-31T17:18:00;17.90;73.70
27940;DHT22;15275;51.716;14.324;2022-10-31T17:20:27;17.90;73.80
27940;DHT22;15275;51.716;14.324;2022-10-31T17:22:54;17.80;73.80
27940;DHT22;15275;51.716;14.324;2022-10-31T17:25:27;17.80;73.80
27940;DHT22;15275;51.716;14.324;2022-10-31T17:27:54;17.80;73.90
27940;DHT22;15275;51.716;14.324;2022-10-31T17:30:20;17.70;74.10
27940;DHT22;15275;51.716;14.324;2022-10-31T17:32:47;17.70;74.20
27940;DHT22;15275;51.716;14.324;2022-10-31T17:35:13;17.60;74.30
27940;DHT22;15275;51.716;14.324;2022-10-31T17:37:40;17.60;74.40
27940;DHT22;15275;51.716;14.324;2022-10-31T17:40:19;17.60;74.40
27940;DHT22;15275;51.716;14.324;2022-10-31T17:42:49;17.50;74.50
27940;DHT22;15275;51.716;14.324;2022-10-31T17:45:16;17.50;74.50
27940;DHT22;15275;51.716;14.324;2022-10-31T17:47:42;17.50;74.60
27940;DHT22;15275;51.716;14.324;2022-10-31T17:50:08;17.40;74.70
27940;DHT22;15275;51.716;14.324;2022-10-31T17:52:34;17.40;74.70
27940;DHT22;15275;51.716;14.324;2022-10-31T17:54:59;17.40;74.70
27940;DHT22;15275;51.716;14.324;2022-10-31T17:57:25;17.40;74.70
27940;DHT22;15275;51.716;14.324;2022-10-31T17:59:51;17.30;74.60
27940;DHT22;15275;51.716;14.324;2022-10-31T18:02:16;17.30;74.60
27940;DHT22;15275;51.716;14.324;2022-10-31T18:04:42;17.30;74.70
27940;DHT22;15275;51.716;14.324;2022-10-31T18:07:08;17.20;74.70
27940;DHT22;15275;51.716;14.324;2022-10-31T18:09:34;17.20;74.70
27940;DHT22;15275;51.716;14.324;2022-10-31T18:11:59;17.20;74.80
27940;DHT22;15275;51.716;14.324;2022-10-31T18:14:25;17.10;74.80
27940;DHT22;15275;51.716;14.324;2022-10-31T18:16:52;17.10;74.90
27940;DHT22;15275;51.716;14.324;2022-10-31T18:19:18;17.10;74.90
27940;DHT22;15275;51.716;14.324;2022-10-31T18:21:44;17.10;74.90